Time;durP1;ratioP1;P1;durP2;ratioP2;P2;SDS_P1;SDS_P2;PMS_P1;PMS_P2;Temp;Humidity;BMP_temperature;BMP_pressure;BME280_temperature;BME280_humidity;BME280_pressure;Samples;Min_cycle;Max_cycle;Signal;HPM_P1;HPM_P2
2023/04/03 00:00:45;;;;;;;;;19.25;16.75;;;;;;;;5051369;28;11515;-94
2023/04/03 00:03:12;;;;;;;;;23.50;19.00;;;;;;;;5053867;28;11652;-91
2023/04/03 00:05:40;;;;;;;;;20.50;18.25;;;;;;;;5056745;28;11533;-90
2023/04/03 00:08:09;;;;;;;;;23.00;19.75;;;;;;;;5055616;28;11517;-92
2023/04/03 00:10:37;;;;;;;;;13.00;13.00;;;;;;;;5053222;28;11556;-91
2023/04/03 00:13:04;;;;;;;;;17.00;17.00;;;;;;;;5050442;28;11574;-92
2023/04/03 00:15:32;;;;;;;;;17.75;17.25;;;;;;;;5053320;28;11684;-85
2023/04/03 00:18:02;;;;;;;;;18.75;13.75;;;;;;;;5052882;28;11669;-86
2023/04/03 00:20:29;;;;;;;;;21.75;17.75;;;;;;;;5030389;28;11533;-86
2023/04/03 00:22:56;;;;;;;;;13.75;12.75;;;;;;;;5051742;28;11655;-92
2023/04/03 00:25:24;;;;;;;;;13.75;13.75;;;;;;;;5048876;28;11640;-92
2023/04/03 00:27:51;;;;;;;;;18.00;12.00;;;;;;;;5038001;28;11566;-92
2023/04/03 00:30:21;;;;;;;;;14.25;14.25;;;;;;;;5055052;28;11662;-94
2023/04/03 00:32:49;;;;;;;;;14.00;14.00;;;;;;;;5058861;28;11584;-92
2023/04/03 00:35:19;;;;;;;;;17.50;15.75;;;;;;;;5056398;28;11539;-95
2023/04/03 00:37:47;;;;;;;;;18.25;18.25;;;;;;;;5049967;28;11689;-92
2023/04/03 00:40:16;;;;;;;;;18.25;14.25;;;;;;;;5050312;28;11527;-92
2023/04/03 00:42:45;;;;;;;;;18.25;15.50;;;;;;;;5049765;28;11475;-93
2023/04/03 00:45:35;;;;;;;;;17.75;17.00;;;;;;;;5050064;28;11535;-93
2023/04/03 00:48:06;;;;;;;;;16.50;15.25;;;;;;;;5042139;28;11553;-88
2023/04/03 00:50:37;;;;;;;;;12.00;12.00;;;;;;;;5032780;28;11595;-92
2023/04/03 00:53:05;;;;;;;;;13.25;11.50;;;;;;;;5050371;28;11470;-90
2023/04/03 00:55:33;;;;;;;;;12.75;12.75;;;;;;;;5049340;28;11464;-90
2023/04/03 00:58:02;;;;;;;;;14.00;12.50;;;;;;;;5052560;28;11614;-94
2023/04/03 01:00:29;;;;;;;;;21.75;16.75;;;;;;;;5055053;28;11621;-90
2023/04/03 01:02:56;;;;;;;;;14.00;14.00;;;;;;;;5058919;28;11648;-87
2023/04/03 01:05:24;;;;;;;;;12.00;12.00;;;;;;;;5054519;28;11548;-93
2023/04/03 01:07:59;;;;;;;;;11.75;11.75;;;;;;;;5050582;28;11607;-90
2023/04/03 01:10:26;;;;;;;;;13.25;13.00;;;;;;;;5046406;28;11520;-93
2023/04/03 01:12:53;;;;;;;;;11.75;11.00;;;;;;;;5033576;28;11659;-94
2023/04/03 01:15:23;;;;;;;;;15.50;13.50;;;;;;;;5049149;28;11561;-90
2023/04/03 01:17:56;;;;;;;;;13.25;13.25;;;;;;;;5049480;28;11517;-89
2023/04/03 01:21:01;;;;;;;;;14.50;14.00;;;;;;;;5046627;28;11561;-89
2023/04/03 01:23:41;;;;;;;;;15.50;13.75;;;;;;;;5048853;28;11610;-90
2023/04/03 01:26:11;;;;;;;;;15.75;15.75;;;;;;;;5052018;28;11528;-91
2023/04/03 01:28:39;;;;;;;;;12.50;12.50;;;;;;;;5048715;28;11517;-88
2023/04/03 01:31:15;;;;;;;;;21.25;18.25;;;;;;;;5054193;28;11557;-90
2023/04/03 01:33:44;;;;;;;;;17.75;17.00;;;;;;;;5049772;28;11559;-89
2023/04/03 01:36:17;;;;;;;;;13.00;13.00;;;;;;;;5049436;28;11545;-93
2023/04/03 01:38:45;;;;;;;;;17.50;17.50;;;;;;;;5049804;28;11483;-93
2023/04/03 01:41:12;;;;;;;;;15.00;12.75;;;;;;;;5048489;28;12312;-92
2023/04/03 01:43:39;;;;;;;;;17.00;14.75;;;;;;;;5049054;28;11526;-93
2023/04/03 01:46:07;;;;;;;;;14.25;10.75;;;;;;;;5049289;28;11549;-92
2023/04/03 01:48:35;;;;;;;;;14.00;13.00;;;;;;;;5049743;28;11566;-89
2023/04/03 01:51:03;;;;;;;;;14.50;14.50;;;;;;;;5049624;28;11520;-92
2023/04/03 01:53:31;;;;;;;;;14.00;14.00;;;;;;;;5049696;28;11561;-91
2023/04/03 01:55:58;;;;;;;;;29.00;27.00;;;;;;;;5051200;28;11755;-88
2023/04/03 01:58:25;;;;;;;;;21.50;21.25;;;;;;;;5052842;28;11574;-90
2023/04/03 02:00:53;;;;;;;;;14.75;14.75;;;;;;;;5051483;28;11494;-87
2023/04/03 02:03:21;;;;;;;;;23.00;17.25;;;;;;;;5048548;28;11589;-88
2023/04/03 02:05:48;;;;;;;;;18.00;17.00;;;;;;;;5052740;28;11605;-89
2023/04/03 02:08:18;;;;;;;;;20.50;17.25;;;;;;;;5051235;28;11696;-90
2023/04/03 02:10:45;;;;;;;;;21.25;17.25;;;;;;;;5051797;28;11528;-88
2023/04/03 02:13:13;;;;;;;;;13.00;13.00;;;;;;;;5050543;28;11530;-92
2023/04/03 02:15:40;;;;;;;;;20.00;18.50;;;;;;;;5049582;28;11656;-86
2023/04/03 02:18:08;;;;;;;;;16.50;16.50;;;;;;;;5048221;28;11548;-90
2023/04/03 02:20:35;;;;;;;;;17.25;17.25;;;;;;;;5049577;28;11568;-94
2023/04/03 02:23:03;;;;;;;;;17.00;17.00;;;;;;;;5052858;28;11689;-90
2023/04/03 02:25:33;;;;;;;;;18.75;15.75;;;;;;;;5055845;28;11651;-91
2023/04/03 02:28:00;;;;;;;;;21.50;17.00;;;;;;;;5052843;28;11668;-92
2023/04/03 02:30:28;;;;;;;;;19.25;19.25;;;;;;;;5049112;28;11490;-93
2023/04/03 02:32:55;;;;;;;;;17.50;16.25;;;;;;;;5048355;28;11706;-93
2023/04/03 02:35:23;;;;;;;;;15.50;15.50;;;;;;;;5031124;28;11549;-93
2023/04/03 02:37:50;;;;;;;;;23.50;21.25;;;;;;;;5048585;28;11726;-94
2023/04/03 02:40:18;;;;;;;;;19.75;17.75;;;;;;;;5049508;28;11610;-95
2023/04/03 02:42:46;;;;;;;;;20.50;17.25;;;;;;;;5050155;28;11700;-94
2023/04/03 02:45:14;;;;;;;;;20.00;16.25;;;;;;;;5051978;28;11710;-94
2023/04/03 02:47:41;;;;;;;;;19.00;17.50;;;;;;;;5052955;28;11607;-89
2023/04/03 02:50:09;;;;;;;;;21.00;18.50;;;;;;;;5054239;28;11679;-87
2023/04/03 02:52:36;;;;;;;;;18.50;17.00;;;;;;;;5058280;28;11572;-94
2023/04/03 02:55:04;;;;;;;;;21.50;20.25;;;;;;;;5057127;28;11577;-92
2023/04/03 02:57:31;;;;;;;;;19.75;17.25;;;;;;;;5056290;28;11515;-88
2023/04/03 03:00:00;;;;;;;;;22.25;22.00;;;;;;;;5045293;28;11556;-88
2023/04/03 03:02:27;;;;;;;;;22.00;21.00;;;;;;;;5050998;28;11616;-89
2023/04/03 03:04:54;;;;;;;;;20.50;18.50;;;;;;;;5047017;28;11572;-89
2023/04/03 03:07:22;;;;;;;;;20.25;18.25;;;;;;;;5053563;28;11550;-88
2023/04/03 03:09:49;;;;;;;;;21.25;21.00;;;;;;;;5054766;28;11537;-92
2023/04/03 03:12:21;;;;;;;;;20.25;20.25;;;;;;;;5052088;28;11616;-93
2023/04/03 03:14:48;;;;;;;;;25.00;21.25;;;;;;;;5051012;28;11493;-92
2023/04/03 03:17:17;;;;;;;;;22.00;17.75;;;;;;;;5052138;28;11548;-92
2023/04/03 03:19:45;;;;;;;;;26.00;22.00;;;;;;;;5055101;28;11675;-88
2023/04/03 03:22:12;;;;;;;;;19.50;17.25;;;;;;;;5056881;28;11549;-89
2023/04/03 03:24:40;;;;;;;;;20.75;18.00;;;;;;;;5054123;28;11630;-88
2023/04/03 03:27:07;;;;;;;;;17.50;17.25;;;;;;;;5051720;28;11547;-87
2023/04/03 03:29:34;;;;;;;;;13.75;11.50;;;;;;;;5051523;28;12316;-93
2023/04/03 03:32:02;;;;;;;;;18.75;15.75;;;;;;;;5050822;28;11493;-90
2023/04/03 03:34:30;;;;;;;;;27.25;25.25;;;;;;;;5051306;28;11572;-91
2023/04/03 03:36:58;;;;;;;;;28.50;20.50;;;;;;;;5051560;28;11623;-89
2023/04/03 03:39:25;;;;;;;;;23.50;21.50;;;;;;;;5053147;28;11494;-88
2023/04/03 03:41:53;;;;;;;;;23.25;19.75;;;;;;;;5061750;28;11657;-88
2023/04/03 03:44:20;;;;;;;;;25.50;22.25;;;;;;;;5052653;28;11632;-90
2023/04/03 03:46:47;;;;;;;;;23.75;21.00;;;;;;;;5053132;28;11644;-90
2023/04/03 03:49:15;;;;;;;;;19.50;19.25;;;;;;;;5057381;28;11580;-92
2023/04/03 03:51:46;;;;;;;;;23.25;19.75;;;;;;;;5057583;28;11563;-89
2023/04/03 03:54:14;;;;;;;;;26.25;19.75;;;;;;;;5051758;28;11619;-91
2023/04/03 03:56:41;;;;;;;;;25.75;19.75;;;;;;;;5051808;28;12314;-89
2023/04/03 03:59:08;;;;;;;;;23.50;21.00;;;;;;;;5051564;28;11579;-84
2023/04/03 04:01:36;;;;;;;;;21.75;21.75;;;;;;;;5052508;28;11604;-84
2023/04/03 04:04:03;;;;;;;;;29.25;26.00;;;;;;;;5051615;28;11534;-87
2023/04/03 04:06:30;;;;;;;;;26.25;26.25;;;;;;;;5051538;28;11555;-84
2023/04/03 04:08:59;;;;;;;;;27.50;25.50;;;;;;;;5050466;28;11548;-93
2023/04/03 04:11:27;;;;;;;;;25.50;24.50;;;;;;;;5050184;28;11660;-92
2023/04/03 04:13:54;;;;;;;;;31.75;24.50;;;;;;;;5050112;28;11560;-92
2023/04/03 04:16:22;;;;;;;;;22.25;22.25;;;;;;;;5056478;28;11545;-92
2023/04/03 04:18:49;;;;;;;;;24.75;24.75;;;;;;;;5056716;28;11677;-92
2023/04/03 04:21:16;;;;;;;;;23.25;23.25;;;;;;;;5053439;28;11537;-93
2023/04/03 04:23:44;;;;;;;;;26.75;24.75;;;;;;;;5050609;28;11573;-90
2023/04/03 04:26:12;;;;;;;;;25.75;23.50;;;;;;;;5049897;28;11552;-91
2023/04/03 04:28:40;;;;;;;;;24.75;23.75;;;;;;;;5037422;28;11636;-85
2023/04/03 04:31:07;;;;;;;;;23.00;21.50;;;;;;;;5049300;28;11642;-89
2023/04/03 04:33:35;;;;;;;;;20.75;20.75;;;;;;;;5050896;28;11697;-92
2023/04/03 04:36:02;;;;;;;;;29.50;26.25;;;;;;;;5053080;28;11614;-90
2023/04/03 04:38:30;;;;;;;;;20.25;19.00;;;;;;;;5053414;28;11689;-92
2023/04/03 04:40:57;;;;;;;;;24.00;24.00;;;;;;;;5052163;28;11547;-91
2023/04/03 04:43:26;;;;;;;;;26.75;24.75;;;;;;;;5052843;28;11543;-94
2023/04/03 04:46:02;;;;;;;;;32.50;28.75;;;;;;;;5057384;28;11538;-92
2023/04/03 04:48:29;;;;;;;;;21.75;21.75;;;;;;;;5044080;28;11591;-91
2023/04/03 04:50:57;;;;;;;;;28.25;25.75;;;;;;;;5050359;28;11688;-90
2023/04/03 04:53:24;;;;;;;;;28.25;28.25;;;;;;;;5045098;28;11738;-89
2023/04/03 04:55:52;;;;;;;;;26.00;22.50;;;;;;;;5048805;28;11602;-90
2023/04/03 04:58:19;;;;;;;;;25.75;23.25;;;;;;;;5042250;28;11683;-90
2023/04/03 05:00:48;;;;;;;;;29.50;26.00;;;;;;;;5046711;28;11508;-86
2023/04/03 05:03:16;;;;;;;;;21.25;20.25;;;;;;;;5049216;28;11791;-93
2023/04/03 05:05:43;;;;;;;;;26.75;24.50;;;;;;;;5048355;28;11727;-90
2023/04/03 05:08:12;;;;;;;;;32.50;26.50;;;;;;;;5049382;28;11608;-87
2023/04/03 05:10:40;;;;;;;;;26.00;25.50;;;;;;;;5037182;28;11610;-90
2023/04/03 05:13:07;;;;;;;;;35.00;31.75;;;;;;;;5042542;28;11681;-86
2023/04/03 05:15:37;;;;;;;;;29.50;29.50;;;;;;;;5056621;28;11713;-89
2023/04/03 05:18:06;;;;;;;;;31.00;30.25;;;;;;;;5053342;28;11573;-90
2023/04/03 05:20:33;;;;;;;;;33.25;33.00;;;;;;;;5049638;28;11722;-91
2023/04/03 05:23:01;;;;;;;;;25.75;24.00;;;;;;;;5049073;28;11633;-90
2023/04/03 05:25:28;;;;;;;;;28.25;24.50;;;;;;;;5049867;28;11693;-89
2023/04/03 05:27:55;;;;;;;;;28.00;24.75;;;;;;;;5048023;28;11540;-90
2023/04/03 05:30:23;;;;;;;;;34.00;30.75;;;;;;;;5048928;28;11472;-91
2023/04/03 05:32:50;;;;;;;;;34.75;29.75;;;;;;;;5049456;28;11670;-90
2023/04/03 05:35:19;;;;;;;;;26.25;22.50;;;;;;;;5049588;28;12325;-89
2023/04/03 05:37:46;;;;;;;;;29.75;27.50;;;;;;;;5049070;28;11532;-90
2023/04/03 05:40:14;;;;;;;;;30.00;27.75;;;;;;;;5034796;28;11622;-92
2023/04/03 05:42:42;;;;;;;;;30.25;25.00;;;;;;;;5053110;28;11688;-87
2023/04/03 05:45:09;;;;;;;;;32.75;29.00;;;;;;;;5049410;28;11554;-87
2023/04/03 05:47:37;;;;;;;;;31.50;27.75;;;;;;;;5046807;28;11541;-74
2023/04/03 05:50:05;;;;;;;;;38.00;31.00;;;;;;;;5047008;28;11639;-78
2023/04/03 05:52:36;;;;;;;;;30.75;28.50;;;;;;;;5046278;28;11545;-75
2023/04/03 05:55:04;;;;;;;;;36.00;35.00;;;;;;;;5050179;28;11636;-76
2023/04/03 05:57:31;;;;;;;;;37.00;35.25;;;;;;;;5047050;28;11574;-73
2023/04/03 05:59:58;;;;;;;;;32.00;28.25;;;;;;;;5046625;28;11564;-76
2023/04/03 06:02:26;;;;;;;;;34.25;31.75;;;;;;;;5045508;28;11549;-74
2023/04/03 06:04:54;;;;;;;;;41.75;32.50;;;;;;;;5045927;28;11525;-75
2023/04/03 06:07:23;;;;;;;;;25.50;19.50;;;;;;;;5046374;28;11607;-73
2023/04/03 06:09:52;;;;;;;;;34.25;31.75;;;;;;;;5046472;28;11550;-73
2023/04/03 06:12:20;;;;;;;;;31.50;27.50;;;;;;;;5045742;28;11620;-75
2023/04/03 06:14:48;;;;;;;;;30.25;27.75;;;;;;;;5046297;28;12332;-75
2023/04/03 06:17:15;;;;;;;;;40.25;36.75;;;;;;;;5042497;28;11556;-75
2023/04/03 06:19:42;;;;;;;;;38.25;28.75;;;;;;;;5046240;28;11557;-75
2023/04/03 06:22:11;;;;;;;;;37.25;32.00;;;;;;;;5046325;28;11544;-73
2023/04/03 06:24:38;;;;;;;;;39.75;38.25;;;;;;;;5046348;28;11559;-74
2023/04/03 06:27:07;;;;;;;;;46.75;37.50;;;;;;;;5049368;28;11612;-75
2023/04/03 06:29:35;;;;;;;;;44.50;38.50;;;;;;;;5049358;28;11537;-73
2023/04/03 06:32:02;;;;;;;;;47.25;39.75;;;;;;;;5049958;28;11520;-74
2023/04/03 06:34:29;;;;;;;;;45.00;36.75;;;;;;;;5050284;28;11605;-73
2023/04/03 06:36:56;;;;;;;;;45.75;39.75;;;;;;;;5051277;28;11565;-73
2023/04/03 06:39:24;;;;;;;;;39.00;36.00;;;;;;;;5052221;28;11598;-74
2023/04/03 06:41:51;;;;;;;;;38.25;35.25;;;;;;;;5050249;28;11682;-76
2023/04/03 06:44:20;;;;;;;;;32.00;32.00;;;;;;;;5048175;28;11551;-75
2023/04/03 06:46:48;;;;;;;;;29.50;25.75;;;;;;;;5049023;28;11549;-73
2023/04/03 06:49:15;;;;;;;;;24.25;23.00;;;;;;;;5038058;28;11664;-72
2023/04/03 06:51:42;;;;;;;;;19.25;19.25;;;;;;;;5039828;28;11598;-73
2023/04/03 06:54:10;;;;;;;;;25.50;25.50;;;;;;;;5046074;28;11704;-72
2023/04/03 06:56:37;;;;;;;;;22.50;20.50;;;;;;;;5047951;28;11536;-75
2023/04/03 06:59:04;;;;;;;;;25.75;23.00;;;;;;;;5046809;28;11583;-74
2023/04/03 07:01:33;;;;;;;;;24.50;21.00;;;;;;;;5048299;28;11622;-73
2023/04/03 07:04:02;;;;;;;;;24.50;18.75;;;;;;;;5049331;28;11543;-74
2023/04/03 07:06:30;;;;;;;;;25.50;25.50;;;;;;;;5048822;28;11568;-74
2023/04/03 07:08:58;;;;;;;;;25.25;25.25;;;;;;;;5049346;28;11665;-74
2023/04/03 07:11:26;;;;;;;;;26.75;23.75;;;;;;;;5049191;28;11565;-75
2023/04/03 07:13:53;;;;;;;;;20.50;20.50;;;;;;;;5048724;28;11572;-73
2023/04/03 07:16:21;;;;;;;;;26.50;25.25;;;;;;;;5047915;28;11520;-75
2023/04/03 07:18:50;;;;;;;;;29.75;27.00;;;;;;;;5040505;28;11555;-75
2023/04/03 07:21:17;;;;;;;;;29.00;24.00;;;;;;;;5048369;28;12307;-73
2023/04/03 07:23:45;;;;;;;;;32.25;24.75;;;;;;;;5039490;28;11576;-75
2023/04/03 07:26:12;;;;;;;;;20.25;20.25;;;;;;;;5048683;28;11533;-73
2023/04/03 07:28:40;;;;;;;;;27.50;23.50;;;;;;;;5048033;28;11541;-74
2023/04/03 07:31:13;;;;;;;;;20.00;20.00;;;;;;;;5048271;28;11497;-75
2023/04/03 07:33:40;;;;;;;;;20.75;20.75;;;;;;;;5048794;28;12438;-74
2023/04/03 07:36:10;;;;;;;;;20.75;17.25;;;;;;;;5048873;28;11545;-75
2023/04/03 07:38:38;;;;;;;;;19.00;15.25;;;;;;;;5048344;28;11549;-74
2023/04/03 07:41:06;;;;;;;;;21.25;20.50;;;;;;;;5048250;28;12296;-74
2023/04/03 07:43:34;;;;;;;;;21.50;18.75;;;;;;;;5048485;28;11626;-73
2023/04/03 07:46:01;;;;;;;;;15.25;15.25;;;;;;;;5048157;28;12275;-74
2023/04/03 07:48:28;;;;;;;;;13.00;11.75;;;;;;;;5048737;28;12334;-74
2023/04/03 07:50:59;;;;;;;;;12.00;12.00;;;;;;;;5048062;28;11633;-74
2023/04/03 07:53:28;;;;;;;;;15.75;14.00;;;;;;;;5048579;28;11562;-74
2023/04/03 07:55:56;;;;;;;;;10.75;8.50;;;;;;;;5047596;28;11699;-70
2023/04/03 07:58:24;;;;;;;;;13.25;13.00;;;;;;;;5048519;28;11560;-74
2023/04/03 08:00:51;;;;;;;;;9.25;9.25;;;;;;;;5047336;28;12271;-74
2023/04/03 08:03:19;;;;;;;;;11.00;8.50;;;;;;;;5045718;28;11603;-74
2023/04/03 08:05:47;;;;;;;;;9.75;9.75;;;;;;;;5043618;28;11542;-75
2023/04/03 08:08:16;;;;;;;;;11.00;8.00;;;;;;;;5042748;28;11517;-75
2023/04/03 08:10:44;;;;;;;;;7.50;7.50;;;;;;;;5047650;28;11483;-75
2023/04/03 08:13:12;;;;;;;;;9.75;8.25;;;;;;;;5047817;28;11493;-74
2023/04/03 08:15:39;;;;;;;;;8.25;7.00;;;;;;;;5038450;28;11470;-74
2023/04/03 08:18:06;;;;;;;;;7.75;7.75;;;;;;;;5047809;28;11538;-74
2023/04/03 08:20:34;;;;;;;;;6.50;6.50;;;;;;;;5048157;28;11450;-75
2023/04/03 08:23:01;;;;;;;;;4.00;4.00;;;;;;;;5047787;28;11579;-74
2023/04/03 08:25:29;;;;;;;;;7.00;4.50;;;;;;;;5048394;28;11501;-74
2023/04/03 08:27:57;;;;;;;;;4.50;3.75;;;;;;;;5047524;28;11461;-72
2023/04/03 08:30:25;;;;;;;;;3.75;3.75;;;;;;;;5041991;28;11475;-73
2023/04/03 08:32:52;;;;;;;;;8.00;6.75;;;;;;;;5046766;28;12392;-73
2023/04/03 08:35:20;;;;;;;;;6.75;6.75;;;;;;;;5044894;28;11453;-75
2023/04/03 08:37:47;;;;;;;;;7.00;6.00;;;;;;;;5045003;28;11470;-72
2023/04/03 08:40:16;;;;;;;;;2.25;2.25;;;;;;;;5040778;28;11417;-73
2023/04/03 08:42:52;;;;;;;;;3.75;3.75;;;;;;;;5043675;28;11426;-73
2023/04/03 08:45:26;;;;;;;;;7.50;4.00;;;;;;;;5047152;28;11494;-73
2023/04/03 08:47:58;;;;;;;;;6.25;6.25;;;;;;;;5033947;28;11424;-73
2023/04/03 08:50:31;;;;;;;;;3.75;3.75;;;;;;;;5046651;28;11412;-72
2023/04/03 08:52:59;;;;;;;;;7.00;4.00;;;;;;;;5035439;28;11445;-73
2023/04/03 08:55:29;;;;;;;;;4.00;3.00;;;;;;;;5046679;28;11494;-72
2023/04/03 08:58:01;;;;;;;;;3.00;3.00;;;;;;;;5047068;28;11554;-72
2023/04/03 09:00:33;;;;;;;;;3.00;3.00;;;;;;;;5046304;28;12179;-74
2023/04/03 09:03:00;;;;;;;;;3.75;3.75;;;;;;;;5047582;28;11224;-73
2023/04/03 09:05:38;;;;;;;;;2.75;2.75;;;;;;;;5046574;28;11241;-73
2023/04/03 09:08:12;;;;;;;;;3.25;3.25;;;;;;;;5047145;28;11049;-74
2023/04/03 09:10:41;;;;;;;;;3.00;3.00;;;;;;;;5042330;28;11068;-74
2023/04/03 09:13:14;;;;;;;;;2.00;2.00;;;;;;;;5047118;28;10988;-74
2023/04/03 09:15:43;;;;;;;;;3.50;3.50;;;;;;;;5046729;28;10865;-73
2023/04/03 09:18:16;;;;;;;;;2.25;2.25;;;;;;;;5047298;28;10985;-74
2023/04/03 09:20:50;;;;;;;;;3.00;3.00;;;;;;;;5046339;28;10961;-73
2023/04/03 09:23:23;;;;;;;;;4.00;4.00;;;;;;;;5047329;28;10871;-74
2023/04/03 09:25:53;;;;;;;;;3.00;3.00;;;;;;;;5045835;28;11674;-74
2023/04/03 09:28:20;;;;;;;;;4.00;4.00;;;;;;;;5045494;28;10886;-73
2023/04/03 09:30:49;;;;;;;;;4.00;4.00;;;;;;;;5046029;28;10919;-74
2023/04/03 09:33:16;;;;;;;;;3.00;3.00;;;;;;;;5046056;28;11707;-74
2023/04/03 09:35:44;;;;;;;;;3.75;3.75;;;;;;;;5046876;28;10917;-73
2023/04/03 09:38:21;;;;;;;;;3.00;3.00;;;;;;;;5045793;28;10956;-72
2023/04/03 09:40:51;;;;;;;;;2.75;2.50;;;;;;;;5045659;28;10833;-72
2023/04/03 09:43:27;;;;;;;;;4.00;4.00;;;;;;;;5046760;28;10719;-73
2023/04/03 09:45:56;;;;;;;;;5.25;5.25;;;;;;;;5046010;28;10519;-73
2023/04/03 09:48:26;;;;;;;;;2.00;2.00;;;;;;;;5046715;28;10789;-73
2023/04/03 09:51:03;;;;;;;;;3.00;3.00;;;;;;;;5046302;28;10616;-73
2023/04/03 09:53:33;;;;;;;;;1.00;1.00;;;;;;;;5047216;28;10596;-73
2023/04/03 09:56:03;;;;;;;;;4.50;4.50;;;;;;;;5046636;28;10452;-73
2023/04/03 09:58:33;;;;;;;;;4.00;4.00;;;;;;;;5046766;28;10623;-73
2023/04/03 10:01:03;;;;;;;;;5.00;5.00;;;;;;;;5035483;28;11164;-74
2023/04/03 10:03:34;;;;;;;;;4.75;3.00;;;;;;;;5050133;28;10464;-73
2023/04/03 10:06:02;;;;;;;;;4.75;4.75;;;;;;;;5050714;28;11095;-76
2023/04/03 10:08:31;;;;;;;;;3.50;3.50;;;;;;;;5049285;28;10679;-76
2023/04/03 10:11:13;;;;;;;;;4.75;4.75;;;;;;;;5051161;28;10339;-76
2023/04/03 10:13:55;;;;;;;;;4.00;4.00;;;;;;;;5050674;28;10306;-74
2023/04/03 10:16:28;;;;;;;;;4.00;4.00;;;;;;;;5050509;28;10417;-75
2023/04/03 10:19:07;;;;;;;;;7.25;4.00;;;;;;;;5039036;28;10302;-73
2023/04/03 10:21:39;;;;;;;;;5.50;5.50;;;;;;;;5044972;28;10328;-76
2023/04/03 10:24:12;;;;;;;;;3.75;3.75;;;;;;;;5046865;28;10351;-73
2023/04/03 10:26:46;;;;;;;;;4.00;4.00;;;;;;;;5053927;28;10135;-75
2023/04/03 10:29:27;;;;;;;;;3.25;3.25;;;;;;;;5053533;28;10104;-73
2023/04/03 10:32:01;;;;;;;;;3.75;2.00;;;;;;;;5044012;28;10062;-72
2023/04/03 10:34:32;;;;;;;;;4.00;4.00;;;;;;;;5049662;28;10891;-72
2023/04/03 10:37:07;;;;;;;;;3.75;3.75;;;;;;;;5049848;28;10028;-74
2023/04/03 10:39:37;;;;;;;;;2.00;2.00;;;;;;;;5049509;28;9938;-73
2023/04/03 10:42:09;;;;;;;;;4.00;4.00;;;;;;;;5040924;28;9852;-72
2023/04/03 10:44:44;;;;;;;;;2.50;2.50;;;;;;;;5049430;28;9886;-72
2023/04/03 10:47:19;;;;;;;;;3.00;3.00;;;;;;;;5050162;28;9689;-72
2023/04/03 10:49:52;;;;;;;;;3.50;3.50;;;;;;;;5049398;28;9704;-74
2023/04/03 10:52:23;;;;;;;;;4.00;4.00;;;;;;;;5050238;28;9901;-80
2023/04/03 10:54:59;;;;;;;;;2.00;2.00;;;;;;;;5040536;28;9852;-73
2023/04/03 10:57:27;;;;;;;;;4.75;3.00;;;;;;;;5049519;28;10469;-72
2023/04/03 10:59:56;;;;;;;;;3.00;3.00;;;;;;;;5048818;28;9848;-75
2023/04/03 11:02:27;;;;;;;;;3.00;3.00;;;;;;;;5039978;28;9619;-75
2023/04/03 11:04:59;;;;;;;;;4.50;3.25;;;;;;;;5044617;28;9764;-75
2023/04/03 11:07:28;;;;;;;;;5.75;4.00;;;;;;;;5049475;28;9702;-75
2023/04/03 11:09:58;;;;;;;;;4.50;4.00;;;;;;;;5049109;28;9765;-73
2023/04/03 11:12:30;;;;;;;;;3.50;2.00;;;;;;;;5041302;28;9520;-73
2023/04/03 11:14:57;;;;;;;;;3.00;3.00;;;;;;;;5044156;28;9533;-74
2023/04/03 11:17:31;;;;;;;;;2.00;2.00;;;;;;;;5049348;28;9512;-74
2023/04/03 11:20:02;;;;;;;;;2.00;2.00;;;;;;;;5049154;28;9465;-75
2023/04/03 11:22:34;;;;;;;;;2.33;2.33;;;;;;;;5049178;28;9305;-73
2023/04/03 11:25:06;;;;;;;;;3.67;3.67;;;;;;;;5038098;28;9414;-73
2023/04/03 11:27:40;;;;;;;;;3.00;3.00;;;;;;;;5040204;28;10186;-73
2023/04/03 11:30:10;;;;;;;;;2.00;2.00;;;;;;;;5048110;28;9305;-73
2023/04/03 11:33:00;;;;;;;;;3.00;3.00;;;;;;;;5048850;28;9258;-73
2023/04/03 11:35:28;;;;;;;;;2.00;2.00;;;;;;;;5038957;28;9434;-75
2023/04/03 11:37:56;;;;;;;;;3.33;2.00;;;;;;;;5045956;28;9242;-74
2023/04/03 11:40:26;;;;;;;;;2.33;2.33;;;;;;;;5033459;28;9186;-73
2023/04/03 11:42:55;;;;;;;;;2.67;2.67;;;;;;;;5046746;28;9176;-73
2023/04/03 11:45:35;;;;;;;;;2.33;2.33;;;;;;;;5040995;28;8925;-73
2023/04/03 11:48:06;;;;;;;;;2.00;2.00;;;;;;;;5044582;28;9026;-73
2023/04/03 11:50:44;;;;;;;;;2.00;2.00;;;;;;;;5048946;28;8944;-76
2023/04/03 11:53:32;;;;;;;;;3.00;3.00;;;;;;;;5049188;28;8831;-76
2023/04/03 11:56:04;;;;;;;;;2.50;2.50;;;;;;;;5048399;28;8884;-74
2023/04/03 11:58:33;;;;;;;;;4.75;2.50;;;;;;;;5048303;28;8851;-75
2023/04/03 12:01:04;;;;;;;;;3.00;3.00;;;;;;;;5035343;28;8814;-76
2023/04/03 12:04:03;;;;;;;;;3.00;3.00;;;;;;;;5048321;28;8895;-76
2023/04/03 12:07:02;;;;;;;;;2.00;2.00;;;;;;;;5041162;28;8850;-73
2023/04/03 12:09:57;;;;;;;;;2.75;2.75;;;;;;;;5030829;28;8921;-76
2023/04/03 12:12:40;;;;;;;;;3.00;3.00;;;;;;;;5049111;28;8850;-76
2023/04/03 12:15:27;;;;;;;;;3.50;2.00;;;;;;;;5041608;28;8885;-76
2023/04/03 12:17:54;;;;;;;;;4.75;3.75;;;;;;;;5052522;28;8865;-74
2023/04/03 12:21:00;;;;;;;;;2.00;2.00;;;;;;;;5052382;28;8862;-74
2023/04/03 12:23:29;;;;;;;;;2.00;2.00;;;;;;;;5042190;28;8874;-75
2023/04/03 12:26:07;;;;;;;;;1.00;1.00;;;;;;;;5048361;28;8847;-75
2023/04/03 12:28:41;;;;;;;;;3.00;3.00;;;;;;;;5039396;28;8838;-74
2023/04/03 12:31:11;;;;;;;;;2.25;2.25;;;;;;;;5035546;28;8835;-73
2023/04/03 12:34:07;;;;;;;;;2.25;2.25;;;;;;;;5039359;28;9611;-73
2023/04/03 12:36:43;;;;;;;;;2.25;2.25;;;;;;;;5047426;28;8834;-73
2023/04/03 12:39:42;;;;;;;;;2.50;1.75;;;;;;;;5047966;28;8870;-74
2023/04/03 12:42:19;;;;;;;;;2.50;2.00;;;;;;;;5046980;28;8961;-76
2023/04/03 12:44:55;;;;;;;;;2.50;2.50;;;;;;;;5046245;28;8847;-73
2023/04/03 12:47:27;;;;;;;;;1.00;1.00;;;;;;;;5042619;28;8901;-74
2023/04/03 12:49:55;;;;;;;;;1.00;1.00;;;;;;;;5047557;28;8920;-73
2023/04/03 12:52:31;;;;;;;;;3.00;1.50;;;;;;;;5047890;28;8892;-76
2023/04/03 12:55:00;;;;;;;;;2.50;2.50;;;;;;;;5047494;28;8847;-75
2023/04/03 12:57:28;;;;;;;;;0.00;0.00;;;;;;;;5036767;28;9295;-75
2023/04/03 12:59:56;;;;;;;;;2.00;2.00;;;;;;;;5047060;28;8855;-75
2023/04/03 13:02:25;;;;;;;;;2.00;1.75;;;;;;;;5046818;28;8823;-74
2023/04/03 13:04:54;;;;;;;;;2.00;2.00;;;;;;;;5047330;28;9617;-73
2023/04/03 13:07:27;;;;;;;;;1.00;1.00;;;;;;;;5047345;28;8865;-74
2023/04/03 13:10:00;;;;;;;;;3.25;2.00;;;;;;;;5037348;28;8990;-76
2023/04/03 13:12:27;;;;;;;;;1.75;1.75;;;;;;;;5047252;28;8846;-73
2023/04/03 13:14:57;;;;;;;;;2.00;2.00;;;;;;;;5046871;28;8854;-74
2023/04/03 13:17:24;;;;;;;;;1.75;1.75;;;;;;;;5047133;28;8862;-76
2023/04/03 13:19:52;;;;;;;;;2.00;2.00;;;;;;;;5046534;28;8847;-74
2023/04/03 13:22:32;;;;;;;;;1.00;0.00;;;;;;;;5046779;28;8834;-75
2023/04/03 13:25:02;;;;;;;;;2.25;2.25;;;;;;;;5046761;28;8865;-75
2023/04/03 13:27:31;;;;;;;;;7.75;7.75;;;;;;;;5047010;28;8873;-74
2023/04/03 13:30:00;;;;;;;;;1.25;1.25;;;;;;;;5046136;28;8854;-73
2023/04/03 13:32:29;;;;;;;;;2.25;2.25;;;;;;;;5046400;28;8803;-75
2023/04/03 13:34:57;;;;;;;;;2.00;2.00;;;;;;;;5046047;28;8882;-75
2023/04/03 13:37:26;;;;;;;;;2.25;2.25;;;;;;;;5046817;28;8863;-74
2023/04/03 13:40:10;;;;;;;;;2.00;2.00;;;;;;;;5046109;28;8846;-74
2023/04/03 13:42:40;;;;;;;;;2.00;2.00;;;;;;;;5046245;28;8866;-76
2023/04/03 13:45:19;;;;;;;;;1.00;1.00;;;;;;;;5047147;28;8892;-81
2023/04/03 13:47:48;;;;;;;;;1.00;1.00;;;;;;;;5046700;28;8865;-76
2023/04/03 13:50:18;;;;;;;;;3.00;3.00;;;;;;;;5047199;28;8853;-76
2023/04/03 13:52:47;;;;;;;;;2.25;2.25;;;;;;;;5046598;28;8855;-77
2023/04/03 13:55:23;;;;;;;;;1.00;1.00;;;;;;;;5047282;28;8842;-74
2023/04/03 13:57:52;;;;;;;;;2.00;2.00;;;;;;;;5035067;28;8923;-77
2023/04/03 14:00:33;;;;;;;;;3.00;3.00;;;;;;;;5045923;28;8842;-75
2023/04/03 14:03:01;;;;;;;;;2.00;2.00;;;;;;;;5047060;28;8881;-79
2023/04/03 14:05:28;;;;;;;;;2.50;2.50;;;;;;;;5047100;28;8865;-75
2023/04/03 14:07:56;;;;;;;;;2.00;2.00;;;;;;;;5048353;28;8838;-78
2023/04/03 14:10:25;;;;;;;;;2.50;2.50;;;;;;;;5049403;28;8878;-77
2023/04/03 14:12:52;;;;;;;;;2.25;2.25;;;;;;;;5049497;28;8843;-76
2023/04/03 14:15:24;;;;;;;;;3.25;3.25;;;;;;;;5039033;28;9013;-78
2023/04/03 14:17:52;;;;;;;;;1.50;1.50;;;;;;;;5046983;28;8878;-73
2023/04/03 14:20:21;;;;;;;;;3.75;3.75;;;;;;;;5047693;28;8839;-73
2023/04/03 14:22:51;;;;;;;;;7.00;7.00;;;;;;;;5038498;28;8930;-74
2023/04/03 14:25:19;;;;;;;;;3.00;3.00;;;;;;;;5041291;28;8860;-75
2023/04/03 14:27:49;;;;;;;;;3.00;3.00;;;;;;;;5039464;28;8942;-73
2023/04/03 14:30:18;;;;;;;;;3.00;3.00;;;;;;;;5046601;28;8865;-77
2023/04/03 14:32:46;;;;;;;;;3.25;2.75;;;;;;;;5046447;28;8994;-73
2023/04/03 14:35:14;;;;;;;;;2.75;2.75;;;;;;;;5042273;28;9003;-75
2023/04/03 14:37:41;;;;;;;;;2.00;2.00;;;;;;;;5040863;28;8961;-79
2023/04/03 14:40:12;;;;;;;;;2.75;2.75;;;;;;;;5046003;28;9586;-76
2023/04/03 14:42:40;;;;;;;;;3.00;3.00;;;;;;;;5046062;28;8882;-73
2023/04/03 14:45:11;;;;;;;;;2.00;2.00;;;;;;;;5046277;28;8968;-73
2023/04/03 14:47:42;;;;;;;;;1.00;1.00;;;;;;;;5036737;28;8866;-73
2023/04/03 14:50:12;;;;;;;;;2.00;2.00;;;;;;;;5050158;28;8887;-75